首页
METAR-TAF:

METAR-TAF

机场 :

Shreveport Regional Airport

什里夫波特, 路易斯安那州, 美国

纬度: 32-26-49N, 经度: 093-49-27W, 海拔: 78米

当前天气观测

该预报发布于19分钟前的11:56 UTC
静风
温度 -2°C
湿度 80%
气压 1029 hPa
能見度: 16.1公里
天空无云

METAR: KSHV 271156Z 00000KT 10SM CLR M02/M05 A3038 RMK AO2 SLP289 T10171050 10006 21028 55004

时间: 06:15 (12:15 UTC)

预报

该预报发布于55分钟前的11:20 UTC
预报有效从27日的 12点(UTC)到 28日的 12点(UTC)
风速节,风向
能見度: 10公里
天空无云
从 27日的 1300点(UTC)
风速8节,风向西
能見度: 10公里
天空无云
从 28日的 0100点(UTC)
风速3节,风向多变
能見度: 10公里
天空无云

TAF: KSHV 271120Z 2712/2812 00000KT P6SM SKC FM271300 26008KT P6SM SKC FM280100 VRB03KT P6SM SKC

超过4000个机场的气象观测和天气预报(METAR&TAF报告)。

可查询的气象台以黄色和红色小点在地图上表示。

将鼠标移到小点上方,可查看气象台名称。

然后点击查看天气观测和预报。

如需切换地图:点击带黑十字的绿色按钮放大地图;点击带横线的绿色按钮缩小地图;或者点击绿色箭头查看邻近地区的地图。


METAR-TAF: